Latest Coastal Weather Observations for Minlaton Airport

IDS60701

Issued at 6:51 am CDT Monday 5 December 2016 (issued every 10 minutes, with the page automatically refreshed every 10 minutes)

About coastal observations | Map of coastal stations | Coastal observations for SA | Marine services | Other Formats
Station Details ID: 022031 Name: MINLATON AERO Lat: -34.75 Lon: 137.53 Height: 32.0 m
Data from the previous 72 hours. | See also: Recent months at Minlaton Airport
Date/Time
CDT
Temp
°C
Wind Pressure Rain since
9am
mm
Weather Cloud Vis
km
Sea
Height
m
Swell
Dir  Spd
kts
Gust
kts
hPa Trend Height
m
Period
s
Dir
05/06:30am 10.9 SSE 6 8 1013.1 - 0.2 - - - - - - -
05/06:00am 10.4 S 5 7 1013.0 - 0.2 - - - - - - -
05/05:30am 12.0 S 6 9 1012.7 - 0.2 - - - - - - -
05/05:00am 12.8 S 7 9 1012.1 - 0.2 - - - - - - -
05/04:30am 13.2 SSE 5 7 1012.2 - 0.2 - - - - - - -
05/04:00am 11.9 SE 5 6 1012.2 - 0.2 - - - - - - -
05/03:30am 11.3 SE 1 4 1012.3 - 0.2 - - - - - - -
05/03:00am 10.3 SSE 4 5 1011.8 - 0.2 - - - - - - -
05/02:30am 11.5 SSE 5 8 1011.6 - 0.2 - - - - - - -
05/02:00am 13.1 SSW 9 11 1011.1 - 0.2 - - - - - - -
05/01:30am 14.1 SSW 9 13 1010.9 - 0.2 - - - - - - -
05/01:00am 14.6 SW 14 19 1010.4 - 0.2 - - - - - - -
05/12:30am 14.7 SW 12 16 1010.6 - 0.2 - - - - - - -
05/12:00am 15.4 SW 13 19 1010.3 - 0.2 - - - - - - -
 
Date/Time
CDT
Temp
°C
Wind Pressure Rain since
9am
mm
Weather Cloud Vis
km
Sea
Height
m
Swell
Dir  Spd
kts
Gust
kts
hPa Trend Height
m
Period
s
Dir
04/11:30pm 16.0 SW 13 17 1010.3 - 0.2 - - - - - - -
04/11:00pm 16.2 SW 11 14 1010.0 - 0.2 - - - - - - -
04/10:30pm 16.5 SW 13 17 1010.0 - 0.2 - - - - - - -
04/10:00pm 17.3 SW 15 22 1009.4 - 0.2 - - - - - - -
04/09:30pm 18.4 SW 17 22 1008.7 - 0.2 - - - - - - -
04/09:00pm 18.6 WSW 19 22 1007.8 - 0.2 - - - - - - -
04/08:30pm 19.7 W 13 16 1007.1 - 0.2 - - - - - - -
04/08:00pm 20.8 W 14 17 1006.2 - 0.2 - - - - - - -
04/07:30pm 22.1 WSW 17 24 1005.6 - 0.2 - - - - - - -
04/07:06pm 22.7 W 23 30 1004.6 - 0.2 - - - - - - -
04/07:00pm 23.5 WNW 20 30 1004.2 - 0.2 - - - - - - -
04/06:56pm 24.9 WNW 16 29 1004.1 - 0.2 - - - - - - -
04/06:30pm 27.1 NNW 17 23 1003.5 - 0.2 - - - - - - -
04/06:00pm 28.1 NNW 17 21 1002.8 - 0.2 - - - - - - -
04/05:30pm 30.0 NNW 18 25 1002.7 - 0.2 - - - - - - -
04/05:00pm 31.2 NW 18 24 1002.7 - 0.2 - - - - - - -
04/04:30pm 30.5 N 19 25 1001.9 - 0.2 - - - - - - -
04/04:00pm 30.8 N 21 29 1001.9 - 0.2 - - - - - - -
04/03:36pm 31.0 N 22 32 1002.3 - 0.2 - - - - - - -
04/03:30pm 31.0 N 23 31 1002.5 - 0.2 - - - - - - -
04/03:23pm 30.3 N 23 33 1002.5 - 0.2 - - - - - - -
04/03:00pm 29.3 N 24 32 1002.8 - 0.2 - - - - - - -
04/02:30pm 29.5 N 21 29 1003.4 - 0.2 - - - - - - -
04/02:18pm 28.1 N 18 28 1003.6 - 0.2 - - - - - - -
04/02:00pm 26.5 N 17 23 1003.9 - 0.2 - - - - - - -
04/01:30pm 24.4 N 16 21 1004.3 - 0.2 - - - - - - -
04/01:00pm 21.8 N 19 27 1005.5 - 0.0 - - - - - - -
04/12:30pm 25.7 N 23 29 1006.1 - 0.0 - - - - - - -
04/12:20pm 25.9 N 19 30 1006.4 - 0.0 - - - - - - -
04/12:00pm 25.5 NNW 18 24 1006.7 - 0.0 - - - - - - -
04/11:30am 25.4 NNW 16 22 1006.5 - 0.0 - - - - - - -
04/11:00am 25.0 NNW 18 22 1006.9 - 0.0 - - - - - - -
04/10:30am 27.3 N 24 35 1007.2 - 0.0 - - - - - - -
04/10:00am 28.2 N 24 34 1007.2 - 0.0 - - - - - - -
04/09:43am 29.1 N 22 32 1007.1 - 0.0 - - - - - - -
04/09:30am 28.2 N 23 32 1007.2 - 0.0 - - - - - - -
04/09:06am 27.5 N 25 37 1007.4 - 0.0 - - - - - - -
04/09:00am 28.6 N 24 32 1007.5 - 0.0 - - - - - - -
04/08:42am 26.6 N 23 33 1007.5 - 0.0 - - - - - - -
04/08:30am 26.7 N 27 36 1007.3 - 0.0 - - - - - - -
04/08:09am 26.8 N 20 34 1007.3 - 0.0 - - - - - - -
04/08:00am 24.8 NNW 19 27 1007.3 - 0.0 - - - - - - -
04/07:30am 25.4 NNW 21 28 1006.7 - 0.0 - - - - - - -
04/07:00am 26.7 N 18 24 1005.9 - 0.0 - - - - - - -
04/06:30am 25.7 NNE 19 26 1005.8 - 0.0 - - - - - - -
04/06:00am 22.4 NE 16 19 1005.1 - 0.0 - - - - - - -
04/05:30am 22.2 ENE 15 18 1005.0 - 0.0 - - - - - - -
04/05:00am 21.9 ENE 15 18 1005.1 - 0.0 - - - - - - -
04/04:30am 20.6 ENE 14 17 1005.5 - 0.0 - - - - - - -
04/04:00am 20.2 ENE 13 15 1005.8 - 0.0 - - - - - - -
04/03:30am 19.4 E 14 16 1005.8 - 0.0 - - - - - - -
04/03:00am 18.4 E 13 16 1006.4 - 0.0 - - - - - - -
04/02:30am 18.3 E 13 15 1007.2 - 0.0 - - - - - - -
04/02:00am 18.1 E 14 16 1007.4 - 0.0 - - - - - - -
04/01:30am 17.2 E 11 13 1007.7 - 0.0 - - - - - - -
04/01:00am 17.2 E 13 15 1008.5 - 0.0 - - - - - - -
04/12:30am 17.8 E 13 16 1009.1 - 0.0 - - - - - - -
04/12:00am 18.2 ESE 11 15 1009.3 - 0.0 - - - - - - -
 
Date/Time
CDT
Temp
°C
Wind Pressure Rain since
9am
mm
Weather Cloud Vis
km
Sea
Height
m
Swell
Dir  Spd
kts
Gust
kts
hPa Trend Height
m
Period
s
Dir
03/11:30pm 17.2 SSE 6 8 1009.5 - 0.0 - - - - - - -
03/11:00pm 18.1 SE 7 9 1009.7 - 0.0 - - - - - - -
03/10:30pm 19.0 SSE 10 12 1009.9 - 0.0 - - - - - - -
03/10:00pm 19.8 SE 9 11 1010.0 - 0.0 - - - - - - -
03/09:30pm 20.8 SSE 9 12 1010.1 - 0.0 - - - - - - -
03/09:00pm 21.6 SSE 9 11 1010.3 - 0.0 - - - - - - -
03/08:30pm 22.3 SE 8 10 1010.3 - 0.0 - - - - - - -
03/08:00pm 22.6 SE 9 10 1010.6 - 0.0 - - - - - - -
03/07:30pm 24.4 SSE 9 11 1010.9 - 0.0 - - - - - - -
03/07:00pm 26.2 S 8 10 1010.5 - 0.0 - - - - - - -
03/06:30pm 25.0 WSW 7 8 1010.3 - 0.0 - - - - - - -
03/06:00pm 25.4 WSW 9 11 1010.3 - 0.0 - - - - - - -
03/05:30pm 25.9 W 10 13 1010.3 - 0.0 - - - - - - -
03/05:00pm 27.6 WSW 10 12 1010.5 - 0.0 - - - - - - -
03/04:30pm 28.3 WSW 9 13 1010.5 - 0.0 - - - - - - -
03/04:00pm 28.6 WSW 8 11 1010.4 - 0.0 - - - - - - -
03/03:30pm 28.4 WSW 12 15 1011.0 - 0.0 - - - - - - -
03/03:00pm 28.4 W 12 15 1011.3 - 0.0 - - - - - - -
03/02:30pm 28.6 W 13 16 1011.4 - 0.0 - - - - - - -
03/02:00pm 28.6 W 11 14 1011.3 - 0.0 - - - - - - -
03/01:30pm 28.1 ESE 5 9 1011.5 - 0.0 - - - - - - -
03/01:00pm 28.1 SE 4 8 1011.8 - 0.0 - - - - - - -
03/12:30pm 26.8 ESE 7 11 1012.0 - 0.0 - - - - - - -
03/12:00pm 26.3 E 7 11 1012.3 - 0.0 - - - - - - -
03/11:30am 25.4 E 7 12 1012.6 - 0.0 - - - - - - -
03/11:00am 24.7 E 8 12 1012.7 - 0.0 - - - - - - -
03/10:30am 23.6 E 9 13 1012.8 - 0.0 - - - - - - -
03/10:00am 22.6 ESE 10 14 1012.8 - 0.0 - - - - - - -
03/09:30am 21.5 E 10 13 1013.3 - 0.0 - - - - - - -
03/09:00am 19.9 E 12 15 1013.5 - 0.0 - - - - - - -
03/08:30am 18.8 E 9 12 1013.5 - 0.0 - - - - - - -
03/08:00am 17.3 E 8 11 1013.5 - 0.0 - - - - - - -
03/07:30am 15.9 E 10 13 1013.4 - 0.0 - - - - - - -
03/07:00am 14.2 ESE 13 16 1013.4 - 0.0 - - - - - - -
03/06:30am 12.0 ESE 14 17 1013.1 - 0.0 - - - - - - -
03/06:00am 11.2 E 13 14 1013.1 - 0.0 - - - - - - -
03/05:30am 10.9 ESE 10 14 1012.9 - 0.0 - - - - - - -
03/05:00am 9.9 SE 7 10 1012.9 - 0.0 - - - - - - -
03/04:30am 9.7 SE 6 8 1012.8 - 0.0 - - - - - - -
03/04:00am 9.3 SSE 8 10 1012.6 - 0.0 - - - - - - -
03/03:30am 8.9 SSE 7 9 1012.8 - 0.0 - - - - - - -
03/03:00am 9.5 SSE 7 8 1013.0 - 0.0 - - - - - - -
03/02:30am 10.3 SE 9 11 1013.0 - 0.0 - - - - - - -
03/02:00am 9.3 SSE 7 8 1013.4 - 0.0 - - - - - - -
03/01:30am 9.5 SSE 6 8 1013.8 - 0.0 - - - - - - -
03/01:00am 10.7 SE 8 9 1014.0 - 0.0 - - - - - - -
03/12:30am 11.2 SE 9 11 1014.2 - 0.0 - - - - - - -
03/12:00am 11.5 SSE 10 12 1014.6 - 0.0 - - - - - - -
 
Date/Time
CDT
Temp
°C
Wind Pressure Rain since
9am
mm
Weather Cloud Vis
km
Sea
Height
m
Swell
Dir  Spd
kts
Gust
kts
hPa Trend Height
m
Period
s
Dir
02/11:30pm 11.6 SE 9 12 1014.8 - 0.0 - - - - - - -
02/11:00pm 11.4 SE 8 9 1015.0 - 0.0 - - - - - - -
02/10:30pm 12.1 SSE 10 12 1015.1 - 0.0 - - - - - - -
02/10:00pm 12.3 SSE 10 12 1014.9 - 0.0 - - - - - - -
02/09:30pm 13.0 SSE 11 15 1014.8 - 0.0 - - - - - - -
02/09:00pm 13.8 SSE 11 14 1014.7 - 0.0 - - - - - - -
02/08:30pm 14.9 SE 11 15 1014.9 - 0.0 - - - - - - -
02/08:00pm 16.3 SSE 12 15 1014.5 - 0.0 - - - - - - -
02/07:30pm 16.9 SSE 13 18 1014.4 - 0.0 - - - - - - -
02/07:00pm 18.6 S 15 19 1014.0 - 0.0 - - - - - - -
02/06:30pm 19.6 SSE 14 18 1013.8 - 0.0 - - - - - - -
02/06:00pm 20.5 SSE 13 19 1013.6 - 0.0 - - - - - - -
02/05:30pm 21.3 SSE 14 18 1013.3 - 0.0 - - - - - - -
02/05:00pm 22.2 S 15 21 1013.2 - 0.0 - - - - - - -
02/04:30pm 22.7 S 15 19 1013.2 - 0.0 - - - - - - -
02/04:00pm 23.0 S 14 21 1013.4 - 0.0 - - - - - - -
02/03:30pm 23.4 S 11 20 1013.4 - 0.0 - - - - - - -
02/03:00pm 23.8 S 12 18 1013.3 - 0.0 - - - - - - -
02/02:30pm 24.7 S 11 17 1013.3 - 0.0 - - - - - - -
02/02:00pm 24.2 SSW 10 16 1013.6 - 0.0 - - - - - - -
02/01:30pm 21.9 S 11 15 1013.9 - 0.0 - - - - - - -
02/01:00pm 23.1 S 7 13 1014.2 - 0.0 - - - - - - -
02/12:30pm 23.8 S 10 15 1013.9 - 0.0 - - - - - - -
02/12:00pm 22.5 SSE 5 13 1014.0 - 0.0 - - - - - - -
02/11:30am 22.3 S 11 16 1014.1 - 0.0 - - - - - - -
02/11:00am 21.7 SSW 6 11 1014.1 - 0.0 - - - - - - -
02/10:30am 21.0 SSE 8 14 1014.3 - 0.0 - - - - - - -
02/10:00am 19.0 S 10 13 1014.4 - 0.0 - - - - - - -
02/09:30am 18.3 SSW 10 13 1014.2 - 0.0 - - - - - - -
02/09:00am 19.0 S 10 14 1014.1 - 0.0 - - - - - - -
02/08:30am 17.3 S 9 13 1013.9 - 0.0 - - - - - - -
02/08:00am 16.1 S 6 7 1013.7 - 0.0 - - - - - - -
02/07:30am 14.0 ESE 4 5 1013.3 - 0.0 - - - - - - -
02/07:00am 12.6 ESE 6 7 1013.1 - 0.0 - - - - - - -

Other Formats:

Comma delimited format used in spreadsheet applications
http://www.bom.gov.au/fwo/IDS60701/IDS60701.95659.axf

JavaScript Object Notation format (JSON) in row-major order
http://www.bom.gov.au/fwo/IDS60701/IDS60701.95659.json